sensor_id;sensor_type;location;lat;lon;timestamp;P1;durP1;ratioP1;P2;durP2;ratioP2
33206;SDS011;19565;46.602;11.534;2024-02-26T00:00:42;1.00;;;1.00;;
33206;SDS011;19565;46.602;11.534;2024-02-26T00:03:12;1.37;;;1.07;;
33206;SDS011;19565;46.602;11.534;2024-02-26T00:05:43;1.40;;;1.23;;
33206;SDS011;19565;46.602;11.534;2024-02-26T00:08:12;0.90;;;0.90;;
33206;SDS011;19565;46.602;11.534;2024-02-26T00:10:40;0.70;;;0.70;;
33206;SDS011;19565;46.602;11.534;2024-02-26T00:13:09;1.33;;;1.23;;
33206;SDS011;19565;46.602;11.534;2024-02-26T00:15:38;0.77;;;0.77;;
33206;SDS011;19565;46.602;11.534;2024-02-26T00:18:07;0.90;;;0.90;;
33206;SDS011;19565;46.602;11.534;2024-02-26T00:20:35;2.03;;;1.83;;
33206;SDS011;19565;46.602;11.534;2024-02-26T00:23:03;3.20;;;1.77;;
33206;SDS011;19565;46.602;11.534;2024-02-26T00:25:32;1.10;;;1.10;;
33206;SDS011;19565;46.602;11.534;2024-02-26T00:28:00;1.10;;;1.10;;
33206;SDS011;19565;46.602;11.534;2024-02-26T00:30:28;1.63;;;1.43;;
33206;SDS011;19565;46.602;11.534;2024-02-26T00:32:57;0.80;;;0.80;;
33206;SDS011;19565;46.602;11.534;2024-02-26T00:35:26;0.53;;;0.53;;
33206;SDS011;19565;46.602;11.534;2024-02-26T00:37:54;0.70;;;0.70;;
33206;SDS011;19565;46.602;11.534;2024-02-26T00:40:22;1.00;;;1.00;;
33206;SDS011;19565;46.602;11.534;2024-02-26T00:42:51;0.50;;;0.50;;
33206;SDS011;19565;46.602;11.534;2024-02-26T00:45:19;2.03;;;1.90;;
33206;SDS011;19565;46.602;11.534;2024-02-26T00:47:47;1.80;;;1.70;;
33206;SDS011;19565;46.602;11.534;2024-02-26T00:50:17;1.70;;;1.67;;
33206;SDS011;19565;46.602;11.534;2024-02-26T00:52:45;2.07;;;1.80;;
33206;SDS011;19565;46.602;11.534;2024-02-26T00:55:14;1.60;;;1.60;;
33206;SDS011;19565;46.602;11.534;2024-02-26T00:57:42;2.97;;;2.73;;
33206;SDS011;19565;46.602;11.534;2024-02-26T01:00:11;1.60;;;1.60;;
33206;SDS011;19565;46.602;11.534;2024-02-26T01:02:58;2.00;;;1.90;;
33206;SDS011;19565;46.602;11.534;2024-02-26T01:05:48;2.27;;;2.17;;
33206;SDS011;19565;46.602;11.534;2024-02-26T01:08:18;1.90;;;1.80;;
33206;SDS011;19565;46.602;11.534;2024-02-26T01:10:46;1.73;;;1.67;;
33206;SDS011;19565;46.602;11.534;2024-02-26T01:13:15;1.80;;;1.70;;
33206;SDS011;19565;46.602;11.534;2024-02-26T01:15:43;1.80;;;1.70;;
33206;SDS011;19565;46.602;11.534;2024-02-26T01:18:11;2.10;;;2.00;;
33206;SDS011;19565;46.602;11.534;2024-02-26T01:20:40;2.30;;;2.20;;
33206;SDS011;19565;46.602;11.534;2024-02-26T01:23:09;2.00;;;1.90;;
33206;SDS011;19565;46.602;11.534;2024-02-26T01:25:38;2.23;;;2.13;;
33206;SDS011;19565;46.602;11.534;2024-02-26T01:28:06;0.60;;;0.60;;
33206;SDS011;19565;46.602;11.534;2024-02-26T01:30:34;1.57;;;1.47;;
33206;SDS011;19565;46.602;11.534;2024-02-26T01:33:05;0.70;;;0.70;;
33206;SDS011;19565;46.602;11.534;2024-02-26T01:35:33;0.67;;;0.67;;
33206;SDS011;19565;46.602;11.534;2024-02-26T01:38:02;0.60;;;0.60;;
33206;SDS011;19565;46.602;11.534;2024-02-26T01:40:32;1.00;;;0.97;;
33206;SDS011;19565;46.602;11.534;2024-02-26T01:43:01;0.60;;;0.60;;
33206;SDS011;19565;46.602;11.534;2024-02-26T01:45:30;8.20;;;1.00;;
33206;SDS011;19565;46.602;11.534;2024-02-26T01:47:58;0.60;;;0.60;;
33206;SDS011;19565;46.602;11.534;2024-02-26T01:50:26;0.50;;;0.50;;
33206;SDS011;19565;46.602;11.534;2024-02-26T01:52:56;0.77;;;0.77;;
33206;SDS011;19565;46.602;11.534;2024-02-26T01:55:25;0.60;;;0.60;;
33206;SDS011;19565;46.602;11.534;2024-02-26T01:57:55;0.83;;;0.83;;
33206;SDS011;19565;46.602;11.534;2024-02-26T02:00:24;1.90;;;1.57;;
33206;SDS011;19565;46.602;11.534;2024-02-26T02:02:52;0.77;;;0.77;;
33206;SDS011;19565;46.602;11.534;2024-02-26T02:05:22;1.00;;;1.00;;
33206;SDS011;19565;46.602;11.534;2024-02-26T02:07:50;0.47;;;0.47;;
33206;SDS011;19565;46.602;11.534;2024-02-26T02:10:19;0.50;;;0.50;;
33206;SDS011;19565;46.602;11.534;2024-02-26T02:12:52;1.43;;;1.33;;
33206;SDS011;19565;46.602;11.534;2024-02-26T02:15:21;5.00;;;2.00;;
33206;SDS011;19565;46.602;11.534;2024-02-26T02:17:49;0.70;;;0.70;;
33206;SDS011;19565;46.602;11.534;2024-02-26T02:20:18;1.20;;;1.10;;
33206;SDS011;19565;46.602;11.534;2024-02-26T02:22:48;0.83;;;0.83;;
33206;SDS011;19565;46.602;11.534;2024-02-26T02:25:16;1.97;;;1.77;;
33206;SDS011;19565;46.602;11.534;2024-02-26T02:27:44;2.90;;;2.33;;
33206;SDS011;19565;46.602;11.534;2024-02-26T02:30:13;2.33;;;2.17;;
33206;SDS011;19565;46.602;11.534;2024-02-26T02:32:41;2.23;;;2.10;;
33206;SDS011;19565;46.602;11.534;2024-02-26T02:35:11;3.17;;;2.63;;
33206;SDS011;19565;46.602;11.534;2024-02-26T02:37:39;2.80;;;2.60;;
33206;SDS011;19565;46.602;11.534;2024-02-26T02:40:09;1.90;;;1.80;;
33206;SDS011;19565;46.602;11.534;2024-02-26T02:42:37;2.77;;;2.57;;
33206;SDS011;19565;46.602;11.534;2024-02-26T02:45:06;2.17;;;2.07;;
33206;SDS011;19565;46.602;11.534;2024-02-26T02:47:35;2.40;;;2.30;;
33206;SDS011;19565;46.602;11.534;2024-02-26T02:50:04;3.37;;;3.17;;
33206;SDS011;19565;46.602;11.534;2024-02-26T02:52:33;2.03;;;1.93;;
33206;SDS011;19565;46.602;11.534;2024-02-26T02:55:02;0.90;;;0.90;;
33206;SDS011;19565;46.602;11.534;2024-02-26T02:57:31;1.90;;;1.23;;
33206;SDS011;19565;46.602;11.534;2024-02-26T03:00:00;1.13;;;1.07;;
33206;SDS011;19565;46.602;11.534;2024-02-26T03:02:30;2.37;;;2.27;;
33206;SDS011;19565;46.602;11.534;2024-02-26T03:04:58;2.30;;;2.20;;
33206;SDS011;19565;46.602;11.534;2024-02-26T03:07:27;1.83;;;1.73;;
33206;SDS011;19565;46.602;11.534;2024-02-26T03:09:55;2.27;;;2.17;;
33206;SDS011;19565;46.602;11.534;2024-02-26T03:12:24;1.40;;;1.40;;
33206;SDS011;19565;46.602;11.534;2024-02-26T03:14:57;1.20;;;1.20;;
33206;SDS011;19565;46.602;11.534;2024-02-26T03:17:27;1.10;;;1.10;;
33206;SDS011;19565;46.602;11.534;2024-02-26T03:19:55;1.77;;;1.67;;
33206;SDS011;19565;46.602;11.534;2024-02-26T03:22:23;1.53;;;1.50;;
33206;SDS011;19565;46.602;11.534;2024-02-26T03:24:51;1.47;;;1.40;;
33206;SDS011;19565;46.602;11.534;2024-02-26T03:27:19;1.30;;;1.30;;
33206;SDS011;19565;46.602;11.534;2024-02-26T03:29:48;1.10;;;1.10;;
33206;SDS011;19565;46.602;11.534;2024-02-26T03:32:17;1.20;;;1.20;;
33206;SDS011;19565;46.602;11.534;2024-02-26T03:34:45;2.43;;;2.23;;
33206;SDS011;19565;46.602;11.534;2024-02-26T03:37:20;1.70;;;1.60;;
33206;SDS011;19565;46.602;11.534;2024-02-26T03:39:49;1.43;;;1.37;;
33206;SDS011;19565;46.602;11.534;2024-02-26T03:42:17;2.63;;;2.33;;
33206;SDS011;19565;46.602;11.534;2024-02-26T03:44:46;1.60;;;1.50;;
33206;SDS011;19565;46.602;11.534;2024-02-26T03:47:14;2.03;;;1.93;;
33206;SDS011;19565;46.602;11.534;2024-02-26T03:49:43;1.60;;;1.50;;
33206;SDS011;19565;46.602;11.534;2024-02-26T03:52:12;1.73;;;1.63;;
33206;SDS011;19565;46.602;11.534;2024-02-26T03:54:41;1.53;;;1.43;;
33206;SDS011;19565;46.602;11.534;2024-02-26T03:57:09;2.60;;;2.40;;
33206;SDS011;19565;46.602;11.534;2024-02-26T03:59:38;1.53;;;1.43;;
33206;SDS011;19565;46.602;11.534;2024-02-26T04:02:07;1.90;;;1.80;;
33206;SDS011;19565;46.602;11.534;2024-02-26T04:04:36;1.43;;;1.40;;
33206;SDS011;19565;46.602;11.534;2024-02-26T04:07:06;1.00;;;1.00;;
33206;SDS011;19565;46.602;11.534;2024-02-26T04:09:35;1.53;;;1.43;;
33206;SDS011;19565;46.602;11.534;2024-02-26T04:12:03;1.10;;;1.10;;
33206;SDS011;19565;46.602;11.534;2024-02-26T04:14:32;1.43;;;0.97;;
33206;SDS011;19565;46.602;11.534;2024-02-26T04:17:00;1.13;;;1.03;;
33206;SDS011;19565;46.602;11.534;2024-02-26T04:19:28;1.63;;;1.53;;
33206;SDS011;19565;46.602;11.534;2024-02-26T04:21:56;0.93;;;0.90;;
33206;SDS011;19565;46.602;11.534;2024-02-26T04:24:26;0.30;;;0.30;;
33206;SDS011;19565;46.602;11.534;2024-02-26T04:26:54;0.67;;;0.67;;
33206;SDS011;19565;46.602;11.534;2024-02-26T04:29:22;0.97;;;0.97;;
33206;SDS011;19565;46.602;11.534;2024-02-26T04:31:50;1.17;;;1.17;;
33206;SDS011;19565;46.602;11.534;2024-02-26T04:34:19;0.93;;;0.80;;
33206;SDS011;19565;46.602;11.534;2024-02-26T04:36:47;0.73;;;0.73;;
33206;SDS011;19565;46.602;11.534;2024-02-26T04:39:15;0.70;;;0.70;;
33206;SDS011;19565;46.602;11.534;2024-02-26T04:41:45;0.50;;;0.50;;
33206;SDS011;19565;46.602;11.534;2024-02-26T04:44:13;0.73;;;0.73;;
33206;SDS011;19565;46.602;11.534;2024-02-26T04:46:41;1.10;;;1.00;;
33206;SDS011;19565;46.602;11.534;2024-02-26T04:49:12;0.60;;;0.60;;
33206;SDS011;19565;46.602;11.534;2024-02-26T04:51:40;1.17;;;1.07;;
33206;SDS011;19565;46.602;11.534;2024-02-26T04:54:08;1.40;;;1.30;;
33206;SDS011;19565;46.602;11.534;2024-02-26T04:56:36;1.07;;;0.97;;
33206;SDS011;19565;46.602;11.534;2024-02-26T04:59:07;2.57;;;2.23;;
33206;SDS011;19565;46.602;11.534;2024-02-26T05:01:35;1.37;;;1.27;;
33206;SDS011;19565;46.602;11.534;2024-02-26T05:04:04;2.03;;;1.93;;
33206;SDS011;19565;46.602;11.534;2024-02-26T05:06:32;1.30;;;1.30;;
33206;SDS011;19565;46.602;11.534;2024-02-26T05:09:00;2.10;;;1.90;;
33206;SDS011;19565;46.602;11.534;2024-02-26T05:11:30;1.70;;;1.60;;
33206;SDS011;19565;46.602;11.534;2024-02-26T05:13:58;1.50;;;1.50;;
33206;SDS011;19565;46.602;11.534;2024-02-26T05:16:28;1.50;;;1.50;;
33206;SDS011;19565;46.602;11.534;2024-02-26T05:18:57;2.07;;;1.97;;
33206;SDS011;19565;46.602;11.534;2024-02-26T05:21:26;1.90;;;1.80;;
33206;SDS011;19565;46.602;11.534;2024-02-26T05:23:54;2.63;;;1.77;;
33206;SDS011;19565;46.602;11.534;2024-02-26T05:26:22;1.70;;;1.60;;
33206;SDS011;19565;46.602;11.534;2024-02-26T05:28:51;1.97;;;1.87;;
33206;SDS011;19565;46.602;11.534;2024-02-26T05:31:19;1.40;;;1.40;;
33206;SDS011;19565;46.602;11.534;2024-02-26T05:33:51;2.00;;;1.90;;
33206;SDS011;19565;46.602;11.534;2024-02-26T05:36:20;2.17;;;2.07;;
33206;SDS011;19565;46.602;11.534;2024-02-26T05:38:49;3.33;;;3.13;;
33206;SDS011;19565;46.602;11.534;2024-02-26T05:41:17;2.10;;;2.00;;
33206;SDS011;19565;46.602;11.534;2024-02-26T05:43:49;1.77;;;1.67;;
33206;SDS011;19565;46.602;11.534;2024-02-26T05:46:18;2.43;;;2.33;;
33206;SDS011;19565;46.602;11.534;2024-02-26T05:48:47;2.10;;;2.00;;
33206;SDS011;19565;46.602;11.534;2024-02-26T05:51:19;2.70;;;2.57;;
33206;SDS011;19565;46.602;11.534;2024-02-26T05:53:47;2.10;;;2.00;;
33206;SDS011;19565;46.602;11.534;2024-02-26T05:56:21;3.30;;;3.10;;
33206;SDS011;19565;46.602;11.534;2024-02-26T05:58:52;3.33;;;3.13;;
33206;SDS011;19565;46.602;11.534;2024-02-26T06:01:20;2.30;;;2.20;;
33206;SDS011;19565;46.602;11.534;2024-02-26T06:03:49;2.30;;;2.20;;
33206;SDS011;19565;46.602;11.534;2024-02-26T06:06:19;2.77;;;2.60;;
33206;SDS011;19565;46.602;11.534;2024-02-26T06:08:50;2.77;;;2.57;;
33206;SDS011;19565;46.602;11.534;2024-02-26T06:11:18;2.80;;;2.70;;
33206;SDS011;19565;46.602;11.534;2024-02-26T06:13:46;2.73;;;2.50;;
33206;SDS011;19565;46.602;11.534;2024-02-26T06:16:14;3.87;;;3.53;;
33206;SDS011;19565;46.602;11.534;2024-02-26T06:18:43;2.63;;;2.53;;
33206;SDS011;19565;46.602;11.534;2024-02-26T06:21:11;2.60;;;2.50;;
33206;SDS011;19565;46.602;11.534;2024-02-26T06:23:41;3.17;;;3.00;;
33206;SDS011;19565;46.602;11.534;2024-02-26T06:26:09;2.67;;;2.47;;
33206;SDS011;19565;46.602;11.534;2024-02-26T06:28:38;2.53;;;2.43;;
33206;SDS011;19565;46.602;11.534;2024-02-26T06:31:07;3.40;;;3.20;;
33206;SDS011;19565;46.602;11.534;2024-02-26T06:33:36;4.47;;;4.17;;
33206;SDS011;19565;46.602;11.534;2024-02-26T06:36:04;4.77;;;4.37;;
33206;SDS011;19565;46.602;11.534;2024-02-26T06:38:34;3.80;;;3.60;;
33206;SDS011;19565;46.602;11.534;2024-02-26T06:41:03;3.80;;;3.60;;
33206;SDS011;19565;46.602;11.534;2024-02-26T06:43:32;2.60;;;2.50;;
33206;SDS011;19565;46.602;11.534;2024-02-26T06:46:00;1.90;;;1.80;;
33206;SDS011;19565;46.602;11.534;2024-02-26T06:48:28;1.83;;;1.73;;
33206;SDS011;19565;46.602;11.534;2024-02-26T06:50:57;1.60;;;1.50;;
33206;SDS011;19565;46.602;11.534;2024-02-26T06:53:25;1.10;;;1.10;;
33206;SDS011;19565;46.602;11.534;2024-02-26T06:55:53;2.27;;;1.37;;
33206;SDS011;19565;46.602;11.534;2024-02-26T06:58:23;2.03;;;1.93;;
33206;SDS011;19565;46.602;11.534;2024-02-26T07:00:51;0.73;;;0.73;;
33206;SDS011;19565;46.602;11.534;2024-02-26T07:03:20;1.13;;;1.10;;
33206;SDS011;19565;46.602;11.534;2024-02-26T07:05:49;0.93;;;0.93;;
33206;SDS011;19565;46.602;11.534;2024-02-26T07:08:18;1.17;;;1.13;;
33206;SDS011;19565;46.602;11.534;2024-02-26T07:10:46;1.27;;;1.27;;
33206;SDS011;19565;46.602;11.534;2024-02-26T07:13:15;1.07;;;1.07;;
33206;SDS011;19565;46.602;11.534;2024-02-26T07:15:44;1.73;;;1.63;;
33206;SDS011;19565;46.602;11.534;2024-02-26T07:18:12;0.83;;;0.83;;
33206;SDS011;19565;46.602;11.534;2024-02-26T07:20:41;3.90;;;3.57;;
33206;SDS011;19565;46.602;11.534;2024-02-26T07:23:09;0.80;;;0.80;;
33206;SDS011;19565;46.602;11.534;2024-02-26T07:25:37;1.80;;;1.70;;
33206;SDS011;19565;46.602;11.534;2024-02-26T07:28:06;0.80;;;0.80;;
33206;SDS011;19565;46.602;11.534;2024-02-26T07:30:34;1.20;;;1.20;;
33206;SDS011;19565;46.602;11.534;2024-02-26T07:33:04;1.10;;;1.10;;
33206;SDS011;19565;46.602;11.534;2024-02-26T07:35:33;1.90;;;1.30;;
33206;SDS011;19565;46.602;11.534;2024-02-26T07:38:02;2.30;;;2.10;;
33206;SDS011;19565;46.602;11.534;2024-02-26T07:40:31;3.03;;;2.47;;
33206;SDS011;19565;46.602;11.534;2024-02-26T07:42:59;1.30;;;1.20;;
33206;SDS011;19565;46.602;11.534;2024-02-26T07:45:27;1.40;;;1.33;;
33206;SDS011;19565;46.602;11.534;2024-02-26T07:47:56;2.03;;;1.93;;
33206;SDS011;19565;46.602;11.534;2024-02-26T07:50:26;1.90;;;1.77;;
33206;SDS011;19565;46.602;11.534;2024-02-26T07:52:54;0.80;;;0.80;;
33206;SDS011;19565;46.602;11.534;2024-02-26T07:55:22;0.87;;;0.87;;
33206;SDS011;19565;46.602;11.534;2024-02-26T07:57:50;1.00;;;1.00;;
33206;SDS011;19565;46.602;11.534;2024-02-26T08:00:19;2.87;;;2.67;;
33206;SDS011;19565;46.602;11.534;2024-02-26T08:02:51;2.73;;;2.57;;
33206;SDS011;19565;46.602;11.534;2024-02-26T08:05:20;5.07;;;3.80;;
33206;SDS011;19565;46.602;11.534;2024-02-26T08:07:49;2.30;;;2.20;;
33206;SDS011;19565;46.602;11.534;2024-02-26T08:10:17;2.50;;;2.40;;
33206;SDS011;19565;46.602;11.534;2024-02-26T08:12:45;3.10;;;2.90;;
33206;SDS011;19565;46.602;11.534;2024-02-26T08:15:17;2.60;;;2.40;;
33206;SDS011;19565;46.602;11.534;2024-02-26T08:17:45;2.03;;;1.93;;
33206;SDS011;19565;46.602;11.534;2024-02-26T08:20:14;2.93;;;2.73;;
33206;SDS011;19565;46.602;11.534;2024-02-26T08:22:42;3.33;;;2.70;;
33206;SDS011;19565;46.602;11.534;2024-02-26T08:25:12;3.53;;;3.10;;
33206;SDS011;19565;46.602;11.534;2024-02-26T08:27:42;3.03;;;2.83;;
33206;SDS011;19565;46.602;11.534;2024-02-26T08:30:11;1.23;;;1.23;;
33206;SDS011;19565;46.602;11.534;2024-02-26T08:32:42;1.30;;;1.30;;
33206;SDS011;19565;46.602;11.534;2024-02-26T08:35:13;1.80;;;1.70;;
33206;SDS011;19565;46.602;11.534;2024-02-26T08:37:43;2.70;;;2.47;;
33206;SDS011;19565;46.602;11.534;2024-02-26T08:40:13;3.30;;;3.03;;
33206;SDS011;19565;46.602;11.534;2024-02-26T08:42:42;2.77;;;2.67;;
33206;SDS011;19565;46.602;11.534;2024-02-26T08:45:10;2.70;;;2.60;;
33206;SDS011;19565;46.602;11.534;2024-02-26T08:47:39;2.80;;;2.70;;
33206;SDS011;19565;46.602;11.534;2024-02-26T08:50:07;3.20;;;3.00;;
33206;SDS011;19565;46.602;11.534;2024-02-26T08:52:38;3.10;;;3.00;;
33206;SDS011;19565;46.602;11.534;2024-02-26T08:55:07;2.87;;;2.77;;
33206;SDS011;19565;46.602;11.534;2024-02-26T08:57:37;2.70;;;2.60;;
33206;SDS011;19565;46.602;11.534;2024-02-26T09:00:06;3.20;;;3.00;;
33206;SDS011;19565;46.602;11.534;2024-02-26T09:02:35;2.80;;;2.70;;
33206;SDS011;19565;46.602;11.534;2024-02-26T09:05:05;2.80;;;2.70;;
33206;SDS011;19565;46.602;11.534;2024-02-26T09:07:33;3.60;;;3.40;;
33206;SDS011;19565;46.602;11.534;2024-02-26T09:10:03;2.80;;;2.70;;
33206;SDS011;19565;46.602;11.534;2024-02-26T09:12:31;4.67;;;4.37;;
33206;SDS011;19565;46.602;11.534;2024-02-26T09:15:07;3.97;;;3.67;;
33206;SDS011;19565;46.602;11.534;2024-02-26T09:17:39;3.50;;;3.30;;
33206;SDS011;19565;46.602;11.534;2024-02-26T09:20:07;3.90;;;3.60;;
33206;SDS011;19565;46.602;11.534;2024-02-26T09:22:36;3.90;;;3.67;;
33206;SDS011;19565;46.602;11.534;2024-02-26T09:25:05;3.53;;;3.33;;
33206;SDS011;19565;46.602;11.534;2024-02-26T09:27:34;4.10;;;3.80;;
33206;SDS011;19565;46.602;11.534;2024-02-26T09:30:09;4.10;;;3.80;;
33206;SDS011;19565;46.602;11.534;2024-02-26T09:32:38;5.03;;;4.63;;
33206;SDS011;19565;46.602;11.534;2024-02-26T09:35:07;4.70;;;4.40;;
33206;SDS011;19565;46.602;11.534;2024-02-26T09:37:36;1.70;;;1.60;;
33206;SDS011;19565;46.602;11.534;2024-02-26T09:40:04;1.80;;;1.70;;
33206;SDS011;19565;46.602;11.534;2024-02-26T09:42:33;3.13;;;2.90;;
33206;SDS011;19565;46.602;11.534;2024-02-26T09:45:04;7.30;;;6.90;;
33206;SDS011;19565;46.602;11.534;2024-02-26T09:47:39;6.57;;;4.97;;
33206;SDS011;19565;46.602;11.534;2024-02-26T09:50:09;5.40;;;5.10;;
33206;SDS011;19565;46.602;11.534;2024-02-26T09:52:38;5.23;;;4.87;;
33206;SDS011;19565;46.602;11.534;2024-02-26T09:55:08;5.50;;;5.20;;
33206;SDS011;19565;46.602;11.534;2024-02-26T09:57:37;5.77;;;5.47;;
33206;SDS011;19565;46.602;11.534;2024-02-26T10:00:10;5.97;;;5.60;;
33206;SDS011;19565;46.602;11.534;2024-02-26T10:02:46;5.83;;;5.33;;
33206;SDS011;19565;46.602;11.534;2024-02-26T10:05:16;5.97;;;5.67;;
33206;SDS011;19565;46.602;11.534;2024-02-26T10:07:46;6.47;;;6.07;;
33206;SDS011;19565;46.602;11.534;2024-02-26T10:10:14;6.30;;;5.90;;
33206;SDS011;19565;46.602;11.534;2024-02-26T10:12:43;7.27;;;6.77;;
33206;SDS011;19565;46.602;11.534;2024-02-26T10:15:12;6.73;;;6.23;;
33206;SDS011;19565;46.602;11.534;2024-02-26T10:17:40;6.80;;;6.40;;
33206;SDS011;19565;46.602;11.534;2024-02-26T10:20:17;7.53;;;7.07;;
33206;SDS011;19565;46.602;11.534;2024-02-26T10:22:48;3.63;;;3.43;;
33206;SDS011;19565;46.602;11.534;2024-02-26T10:25:19;7.93;;;7.40;;
33206;SDS011;19565;46.602;11.534;2024-02-26T10:27:47;8.10;;;7.60;;
33206;SDS011;19565;46.602;11.534;2024-02-26T10:30:16;8.00;;;7.50;;
33206;SDS011;19565;46.602;11.534;2024-02-26T10:32:46;8.60;;;8.10;;
33206;SDS011;19565;46.602;11.534;2024-02-26T10:35:17;12.37;;;8.23;;
33206;SDS011;19565;46.602;11.534;2024-02-26T10:37:47;8.50;;;8.00;;
33206;SDS011;19565;46.602;11.534;2024-02-26T10:40:16;3.60;;;3.40;;
33206;SDS011;19565;46.602;11.534;2024-02-26T10:42:44;8.10;;;7.60;;
33206;SDS011;19565;46.602;11.534;2024-02-26T10:45:13;10.60;;;10.00;;
33206;SDS011;19565;46.602;11.534;2024-02-26T10:47:45;9.87;;;9.37;;
33206;SDS011;19565;46.602;11.534;2024-02-26T10:50:14;10.43;;;9.83;;
33206;SDS011;19565;46.602;11.534;2024-02-26T10:52:44;8.63;;;8.13;;
33206;SDS011;19565;46.602;11.534;2024-02-26T10:55:15;9.70;;;8.93;;
33206;SDS011;19565;46.602;11.534;2024-02-26T10:57:45;10.20;;;9.60;;
33206;SDS011;19565;46.602;11.534;2024-02-26T11:00:15;10.40;;;9.80;;
33206;SDS011;19565;46.602;11.534;2024-02-26T11:02:46;11.60;;;11.00;;
33206;SDS011;19565;46.602;11.534;2024-02-26T11:05:19;13.13;;;12.43;;
33206;SDS011;19565;46.602;11.534;2024-02-26T11:07:50;12.73;;;12.13;;
33206;SDS011;19565;46.602;11.534;2024-02-26T11:10:19;11.60;;;11.00;;
33206;SDS011;19565;46.602;11.534;2024-02-26T11:12:48;13.30;;;12.60;;
33206;SDS011;19565;46.602;11.534;2024-02-26T11:15:18;13.43;;;12.73;;
33206;SDS011;19565;46.602;11.534;2024-02-26T11:17:47;13.43;;;12.73;;
33206;SDS011;19565;46.602;11.534;2024-02-26T11:20:16;13.57;;;12.87;;
33206;SDS011;19565;46.602;11.534;2024-02-26T11:22:46;13.60;;;12.90;;
33206;SDS011;19565;46.602;11.534;2024-02-26T11:25:16;15.03;;;14.33;;
33206;SDS011;19565;46.602;11.534;2024-02-26T11:27:46;16.87;;;16.07;;
33206;SDS011;19565;46.602;11.534;2024-02-26T11:30:19;16.90;;;16.10;;
33206;SDS011;19565;46.602;11.534;2024-02-26T11:32:47;17.93;;;17.13;;
33206;SDS011;19565;46.602;11.534;2024-02-26T11:35:17;19.77;;;18.87;;
33206;SDS011;19565;46.602;11.534;2024-02-26T11:37:56;20.80;;;19.90;;
33206;SDS011;19565;46.602;11.534;2024-02-26T11:40:26;23.23;;;22.23;;
33206;SDS011;19565;46.602;11.534;2024-02-26T11:42:55;24.20;;;23.10;;
33206;SDS011;19565;46.602;11.534;2024-02-26T11:45:47;24.47;;;23.37;;
33206;SDS011;19565;46.602;11.534;2024-02-26T11:48:21;22.10;;;21.10;;
33206;SDS011;19565;46.602;11.534;2024-02-26T11:50:52;24.07;;;23.03;;
33206;SDS011;19565;46.602;11.534;2024-02-26T11:53:25;25.80;;;24.40;;
33206;SDS011;19565;46.602;11.534;2024-02-26T11:56:21;23.43;;;22.43;;
33206;SDS011;19565;46.602;11.534;2024-02-26T11:58:57;33.47;;;32.03;;
33206;SDS011;19565;46.602;11.534;2024-02-26T12:04:19;31.33;;;30.03;;
33206;SDS011;19565;46.602;11.534;2024-02-26T12:06:52;25.30;;;24.20;;
33206;SDS011;19565;46.602;11.534;2024-02-26T12:09:30;24.90;;;23.80;;
33206;SDS011;19565;46.602;11.534;2024-02-26T12:12:02;24.47;;;23.37;;
33206;SDS011;19565;46.602;11.534;2024-02-26T12:14:35;27.77;;;26.57;;
33206;SDS011;19565;46.602;11.534;2024-02-26T12:17:15;26.30;;;25.17;;
33206;SDS011;19565;46.602;11.534;2024-02-26T12:19:47;25.27;;;24.17;;
33206;SDS011;19565;46.602;11.534;2024-02-26T12:22:16;25.77;;;24.67;;
33206;SDS011;19565;46.602;11.534;2024-02-26T12:24:44;24.70;;;23.60;;
33206;SDS011;19565;46.602;11.534;2024-02-26T12:27:14;25.30;;;24.20;;
33206;SDS011;19565;46.602;11.534;2024-02-26T12:29:42;22.80;;;21.80;;
33206;SDS011;19565;46.602;11.534;2024-02-26T12:32:11;24.07;;;21.50;;
33206;SDS011;19565;46.602;11.534;2024-02-26T12:34:40;21.30;;;20.40;;
33206;SDS011;19565;46.602;11.534;2024-02-26T12:37:08;22.53;;;21.53;;
33206;SDS011;19565;46.602;11.534;2024-02-26T12:39:37;23.80;;;22.80;;
33206;SDS011;19565;46.602;11.534;2024-02-26T12:42:06;24.30;;;23.27;;
33206;SDS011;19565;46.602;11.534;2024-02-26T12:44:36;28.90;;;27.70;;
33206;SDS011;19565;46.602;11.534;2024-02-26T12:47:05;27.60;;;26.40;;
33206;SDS011;19565;46.602;11.534;2024-02-26T12:49:33;25.27;;;24.17;;
33206;SDS011;19565;46.602;11.534;2024-02-26T12:52:02;24.00;;;23.00;;
33206;SDS011;19565;46.602;11.534;2024-02-26T12:54:30;23.33;;;22.23;;
33206;SDS011;19565;46.602;11.534;2024-02-26T12:57:00;24.30;;;23.20;;
33206;SDS011;19565;46.602;11.534;2024-02-26T12:59:31;24.23;;;23.20;;
33206;SDS011;19565;46.602;11.534;2024-02-26T13:02:01;14.10;;;13.40;;
33206;SDS011;19565;46.602;11.534;2024-02-26T13:04:33;14.60;;;13.80;;
33206;SDS011;19565;46.602;11.534;2024-02-26T13:07:03;13.50;;;12.80;;
33206;SDS011;19565;46.602;11.534;2024-02-26T13:09:32;13.20;;;12.50;;
33206;SDS011;19565;46.602;11.534;2024-02-26T13:12:03;22.10;;;21.10;;
33206;SDS011;19565;46.602;11.534;2024-02-26T13:14:33;22.33;;;21.33;;
33206;SDS011;19565;46.602;11.534;2024-02-26T13:17:03;22.83;;;21.83;;
33206;SDS011;19565;46.602;11.534;2024-02-26T13:19:31;21.17;;;20.27;;
33206;SDS011;19565;46.602;11.534;2024-02-26T13:22:04;22.33;;;21.33;;
33206;SDS011;19565;46.602;11.534;2024-02-26T13:24:33;23.60;;;22.60;;
33206;SDS011;19565;46.602;11.534;2024-02-26T13:27:02;24.77;;;23.67;;
33206;SDS011;19565;46.602;11.534;2024-02-26T13:29:33;23.07;;;22.07;;
33206;SDS011;19565;46.602;11.534;2024-02-26T13:32:02;26.00;;;24.90;;
33206;SDS011;19565;46.602;11.534;2024-02-26T13:34:32;24.30;;;23.20;;
33206;SDS011;19565;46.602;11.534;2024-02-26T13:37:02;30.23;;;28.93;;
33206;SDS011;19565;46.602;11.534;2024-02-26T13:39:32;22.70;;;21.70;;
33206;SDS011;19565;46.602;11.534;2024-02-26T13:42:04;22.93;;;21.93;;
33206;SDS011;19565;46.602;11.534;2024-02-26T13:44:32;22.37;;;21.37;;
33206;SDS011;19565;46.602;11.534;2024-02-26T13:47:07;22.57;;;21.57;;
33206;SDS011;19565;46.602;11.534;2024-02-26T13:49:35;21.10;;;20.20;;
33206;SDS011;19565;46.602;11.534;2024-02-26T13:52:04;22.53;;;21.53;;
33206;SDS011;19565;46.602;11.534;2024-02-26T13:54:32;23.43;;;22.33;;
33206;SDS011;19565;46.602;11.534;2024-02-26T13:57:02;20.97;;;19.93;;
33206;SDS011;19565;46.602;11.534;2024-02-26T13:59:30;21.97;;;20.87;;
33206;SDS011;19565;46.602;11.534;2024-02-26T14:02:01;20.57;;;19.67;;
33206;SDS011;19565;46.602;11.534;2024-02-26T14:04:30;21.93;;;20.93;;
33206;SDS011;19565;46.602;11.534;2024-02-26T14:06:59;21.77;;;20.77;;
33206;SDS011;19565;46.602;11.534;2024-02-26T14:09:27;20.60;;;19.70;;
33206;SDS011;19565;46.602;11.534;2024-02-26T14:12:11;22.03;;;21.03;;
33206;SDS011;19565;46.602;11.534;2024-02-26T14:14:39;22.10;;;21.10;;
33206;SDS011;19565;46.602;11.534;2024-02-26T14:17:09;21.80;;;20.80;;
33206;SDS011;19565;46.602;11.534;2024-02-26T14:19:39;20.43;;;19.53;;
33206;SDS011;19565;46.602;11.534;2024-02-26T14:22:11;20.17;;;19.27;;
33206;SDS011;19565;46.602;11.534;2024-02-26T14:24:39;20.83;;;19.83;;
33206;SDS011;19565;46.602;11.534;2024-02-26T14:27:08;21.50;;;20.50;;
33206;SDS011;19565;46.602;11.534;2024-02-26T14:29:37;22.10;;;21.10;;
33206;SDS011;19565;46.602;11.534;2024-02-26T14:32:08;22.43;;;21.30;;
33206;SDS011;19565;46.602;11.534;2024-02-26T14:34:37;23.57;;;22.47;;
33206;SDS011;19565;46.602;11.534;2024-02-26T14:37:06;20.97;;;19.97;;
33206;SDS011;19565;46.602;11.534;2024-02-26T14:39:35;20.80;;;19.80;;
33206;SDS011;19565;46.602;11.534;2024-02-26T14:42:05;21.63;;;20.30;;
33206;SDS011;19565;46.602;11.534;2024-02-26T14:44:34;20.77;;;19.67;;